createdAt,value
2022-08-12T00:01:14.452Z,22.90
2022-08-12T00:04:01.026Z,22.80
2022-08-12T00:06:47.562Z,22.80
2022-08-12T00:09:34.228Z,22.70
2022-08-12T00:12:21.342Z,22.60
2022-08-12T00:15:08.129Z,22.60
2022-08-12T00:17:54.858Z,22.60
2022-08-12T00:20:40.949Z,22.50
2022-08-12T00:23:27.005Z,22.50
2022-08-12T00:26:23.343Z,22.40
2022-08-12T00:29:12.007Z,22.30
2022-08-12T00:32:00.582Z,22.20
2022-08-12T00:34:49.665Z,22.20
2022-08-12T00:37:40.071Z,22.10
2022-08-12T00:40:31.894Z,22.10
2022-08-12T00:43:01.539Z,22.00
2022-08-12T00:45:49.000Z,21.90
2022-08-12T00:48:17.431Z,21.80
2022-08-12T00:50:47.644Z,21.80
2022-08-12T00:53:16.947Z,21.70
2022-08-12T00:55:47.871Z,21.60
2022-08-12T00:58:23.677Z,21.50
2022-08-12T01:00:52.352Z,21.50
2022-08-12T01:03:21.031Z,21.50
2022-08-12T01:06:08.185Z,21.40
2022-08-12T01:08:54.346Z,21.40
2022-08-12T01:11:32.873Z,21.30
2022-08-12T01:14:02.300Z,21.30
2022-08-12T01:16:30.585Z,21.30
2022-08-12T01:18:58.407Z,21.20
2022-08-12T01:21:52.410Z,21.20
2022-08-12T01:24:58.519Z,21.10
2022-08-12T01:27:28.896Z,21.10
2022-08-12T01:29:58.843Z,21.00
2022-08-12T01:32:28.782Z,20.90
2022-08-12T01:35:17.693Z,20.90
2022-08-12T01:37:58.406Z,20.90
2022-08-12T01:40:37.997Z,20.80
2022-08-12T01:43:09.879Z,20.80
2022-08-12T01:45:52.482Z,20.70
2022-08-12T01:48:50.013Z,20.70
2022-08-12T01:52:14.691Z,20.70
2022-08-12T01:54:23.905Z,20.60
2022-08-12T01:56:52.692Z,20.60
2022-08-12T01:59:50.202Z,20.60
2022-08-12T02:02:28.111Z,20.60
2022-08-12T02:06:01.494Z,20.50
2022-08-12T02:09:05.603Z,20.50
2022-08-12T02:11:41.601Z,20.40
2022-08-12T02:14:37.307Z,20.40
2022-08-12T02:17:55.104Z,20.30
2022-08-12T02:20:43.864Z,20.30
2022-08-12T02:23:15.304Z,20.30
2022-08-12T02:25:46.447Z,20.20
2022-08-12T02:28:14.477Z,20.20
2022-08-12T02:30:42.722Z,20.20
2022-08-12T02:33:11.893Z,20.20
2022-08-12T02:35:40.086Z,20.20
2022-08-12T02:38:12.514Z,20.20
2022-08-12T02:40:45.501Z,20.10
2022-08-12T02:43:21.779Z,20.10
2022-08-12T02:45:56.973Z,20.10
2022-08-12T02:48:43.082Z,20.10
2022-08-12T02:51:13.258Z,20.00
2022-08-12T02:53:45.121Z,20.00
2022-08-12T02:56:31.188Z,19.90
2022-08-12T02:59:01.227Z,19.90
2022-08-12T03:01:34.115Z,19.80
2022-08-12T03:04:20.353Z,19.90
2022-08-12T03:07:16.635Z,19.80
2022-08-12T03:10:05.410Z,19.80
2022-08-12T03:12:47.453Z,19.70
2022-08-12T03:15:22.449Z,19.70
2022-08-12T03:18:25.702Z,19.70
2022-08-12T03:20:41.208Z,19.70
2022-08-12T03:23:28.582Z,19.70
2022-08-12T03:26:02.725Z,19.60
2022-08-12T03:28:51.253Z,19.60
2022-08-12T03:31:32.521Z,19.60
2022-08-12T03:34:10.430Z,19.50
2022-08-12T03:36:39.998Z,19.50
2022-08-12T03:39:35.317Z,19.50
2022-08-12T03:42:30.494Z,19.40
2022-08-12T03:45:52.657Z,19.40
2022-08-12T03:48:39.514Z,19.40
2022-08-12T03:51:27.296Z,19.40
2022-08-12T03:54:14.194Z,19.40
2022-08-12T03:57:00.255Z,19.40
2022-08-12T03:59:46.236Z,19.30
2022-08-12T04:02:18.005Z,19.30
2022-08-12T04:04:46.400Z,19.30
2022-08-12T04:07:16.205Z,19.30
2022-08-12T04:09:46.208Z,19.30
2022-08-12T04:12:33.441Z,19.30
2022-08-12T04:15:02.583Z,19.30
2022-08-12T04:17:32.067Z,19.20
2022-08-12T04:19:59.863Z,19.20
2022-08-12T04:22:30.502Z,19.20
2022-08-12T04:25:01.319Z,19.20
2022-08-12T04:27:31.453Z,19.20
2022-08-12T04:30:30.843Z,19.10
2022-08-12T04:32:52.464Z,19.10
2022-08-12T04:35:22.370Z,19.10
2022-08-12T04:37:59.937Z,19.10
2022-08-12T04:40:31.709Z,19.10
2022-08-12T04:43:03.182Z,19.00
2022-08-12T04:45:33.149Z,19.00
2022-08-12T04:48:02.141Z,19.00
2022-08-12T04:50:35.975Z,19.00
2022-08-12T04:53:08.290Z,19.00
2022-08-12T04:55:38.600Z,19.00
2022-08-12T04:58:07.827Z,18.90
2022-08-12T05:00:37.976Z,18.90
2022-08-12T05:03:06.633Z,18.90
2022-08-12T05:05:36.427Z,18.90
2022-08-12T05:08:07.919Z,18.80
2022-08-12T05:10:36.025Z,18.80
2022-08-12T05:13:19.339Z,18.80
2022-08-12T05:16:02.521Z,18.80
2022-08-12T05:18:39.772Z,18.80
2022-08-12T05:21:10.609Z,18.80
2022-08-12T05:23:39.788Z,18.80
2022-08-12T05:26:07.979Z,18.80
2022-08-12T05:28:36.671Z,18.70
2022-08-12T05:31:04.999Z,18.80
2022-08-12T05:33:41.000Z,18.70
2022-08-12T05:36:13.640Z,18.70
2022-08-12T05:38:59.456Z,18.70
2022-08-12T05:41:35.264Z,18.70
2022-08-12T05:44:08.756Z,18.70
2022-08-12T05:46:37.452Z,18.70
2022-08-12T05:49:06.309Z,18.80
2022-08-12T05:51:40.071Z,18.80
2022-08-12T05:54:11.246Z,18.70
2022-08-12T05:56:40.752Z,18.80
2022-08-12T05:59:11.469Z,18.70
2022-08-12T06:02:12.667Z,18.70
2022-08-12T06:04:28.307Z,18.70
2022-08-12T06:06:56.204Z,18.80
2022-08-12T06:09:25.626Z,18.80
2022-08-12T06:12:04.448Z,18.80
2022-08-12T06:14:37.070Z,18.90
2022-08-12T06:17:09.038Z,18.90
2022-08-12T06:20:28.564Z,18.90
2022-08-12T06:22:28.378Z,19.00
2022-08-12T06:24:56.060Z,19.00
2022-08-12T06:27:24.138Z,19.10
2022-08-12T06:30:08.582Z,19.10
2022-08-12T06:32:51.964Z,19.20
2022-08-12T06:35:48.208Z,19.30
2022-08-12T06:38:22.369Z,19.40
2022-08-12T06:41:13.134Z,19.50
2022-08-12T06:44:05.725Z,19.50
2022-08-12T06:46:31.666Z,19.60
2022-08-12T06:49:00.925Z,19.70
2022-08-12T06:51:30.525Z,19.80
2022-08-12T06:54:00.032Z,19.90
2022-08-12T06:56:46.350Z,20.00
2022-08-12T06:59:15.892Z,20.00
2022-08-12T07:01:51.230Z,20.10
2022-08-12T07:04:37.931Z,20.20
2022-08-12T07:07:08.380Z,20.30
2022-08-12T07:10:03.719Z,20.40
2022-08-12T07:12:26.981Z,20.40
2022-08-12T07:15:01.988Z,20.50
2022-08-12T07:17:35.822Z,20.60
2022-08-12T07:20:29.710Z,20.70
2022-08-12T07:22:59.527Z,20.80
2022-08-12T07:25:31.021Z,20.90
2022-08-12T07:28:17.109Z,20.90
2022-08-12T07:30:48.617Z,21.10
2022-08-12T07:33:18.075Z,21.10
2022-08-12T07:35:48.031Z,21.20
2022-08-12T07:38:30.486Z,21.30
2022-08-12T07:41:02.545Z,21.40
2022-08-12T07:43:31.911Z,21.50
2022-08-12T07:46:00.454Z,21.60
2022-08-12T07:48:28.254Z,21.70
2022-08-12T07:50:55.906Z,21.80
2022-08-12T07:53:23.814Z,21.90
2022-08-12T07:55:51.550Z,22.00
2022-08-12T07:58:19.093Z,22.10
2022-08-12T08:00:46.561Z,22.20
2022-08-12T08:03:15.238Z,22.30
2022-08-12T08:05:49.720Z,22.40
2022-08-12T08:08:20.665Z,22.60
2022-08-12T08:10:49.325Z,22.70
2022-08-12T08:13:17.438Z,22.80
2022-08-12T08:16:02.469Z,22.80
2022-08-12T08:18:31.413Z,22.90
2022-08-12T08:20:59.197Z,23.00
2022-08-12T08:23:56.047Z,23.20
2022-08-12T08:26:25.968Z,23.30
2022-08-12T08:28:53.917Z,23.40
2022-08-12T08:31:21.582Z,23.50
2022-08-12T08:34:09.613Z,23.60
2022-08-12T08:36:37.546Z,23.80
2022-08-12T08:39:09.735Z,23.90
2022-08-12T08:42:15.824Z,24.00
2022-08-12T08:44:43.487Z,24.10
2022-08-12T08:47:12.760Z,24.30
2022-08-12T08:49:40.627Z,24.40
2022-08-12T08:52:10.985Z,24.50
2022-08-12T08:54:38.804Z,24.70
2022-08-12T08:57:08.460Z,24.80
2022-08-12T08:59:36.407Z,24.90
2022-08-12T09:02:04.401Z,25.10
2022-08-12T09:05:13.156Z,25.20
2022-08-12T09:07:52.027Z,25.30
2022-08-12T09:10:15.506Z,25.50
2022-08-12T09:13:22.913Z,25.60
2022-08-12T09:15:55.955Z,25.80
2022-08-12T09:18:30.823Z,25.90
2022-08-12T09:20:58.728Z,26.00
2022-08-12T09:24:00.869Z,26.10
2022-08-12T09:26:19.743Z,26.30
2022-08-12T09:32:06.720Z,26.50
2022-08-12T09:34:29.326Z,26.70
2022-08-12T09:37:02.996Z,26.80
2022-08-12T09:40:01.985Z,27.00
2022-08-12T09:43:15.202Z,27.10
2022-08-12T09:46:12.116Z,27.30
2022-08-12T09:48:34.915Z,27.50
2022-08-12T09:51:17.131Z,27.60
2022-08-12T09:54:06.837Z,27.80
2022-08-12T09:56:58.634Z,27.90
2022-08-12T10:00:12.783Z,28.10
2022-08-12T10:02:43.278Z,28.20
2022-08-12T10:05:05.214Z,28.30
2022-08-12T10:07:40.048Z,28.50
2022-08-12T10:10:24.658Z,28.60
2022-08-12T10:13:34.832Z,28.80
2022-08-12T10:16:05.155Z,29.00
2022-08-12T10:18:35.483Z,29.10
2022-08-12T10:21:07.471Z,29.30
2022-08-12T10:23:40.333Z,29.40
2022-08-12T10:26:37.254Z,29.50
2022-08-12T10:30:37.715Z,29.70
2022-08-12T10:32:42.859Z,30.00
2022-08-12T10:35:09.728Z,30.20
2022-08-12T10:38:35.453Z,30.60
2022-08-12T10:40:31.439Z,30.80
2022-08-12T10:43:19.223Z,31.20
2022-08-12T10:45:49.318Z,31.50
2022-08-12T10:48:33.277Z,31.80
2022-08-12T10:51:51.538Z,32.20
2022-08-12T10:54:00.993Z,32.60
2022-08-12T10:56:35.318Z,32.80
2022-08-12T10:59:10.861Z,33.20
2022-08-12T11:04:18.312Z,33.50
2022-08-12T11:04:44.162Z,33.80
2022-08-12T11:08:34.205Z,34.20
2022-08-12T11:10:05.548Z,34.50
2022-08-12T11:12:54.697Z,34.80
2022-08-12T11:15:33.004Z,35.00
2022-08-12T11:18:11.995Z,35.30
2022-08-12T11:20:47.824Z,35.60
2022-08-12T11:23:25.994Z,35.80
2022-08-12T11:26:05.892Z,36.00
2022-08-12T11:28:37.687Z,36.20
2022-08-12T11:31:11.990Z,36.40
2022-08-12T11:34:04.454Z,36.60
2022-08-12T11:36:29.293Z,36.80
2022-08-12T11:38:58.685Z,37.00
2022-08-12T11:41:34.543Z,37.20
2022-08-12T11:44:35.241Z,37.40
2022-08-12T11:46:53.089Z,37.50
2022-08-12T11:49:31.693Z,37.70
2022-08-12T11:52:04.205Z,37.90
2022-08-12T11:54:50.971Z,38.10
2022-08-12T11:58:07.263Z,38.20
2022-08-12T12:02:55.228Z,38.50
2022-08-12T12:05:22.843Z,38.70
2022-08-12T12:08:38.697Z,38.90
2022-08-12T12:10:43.690Z,39.00
2022-08-12T12:13:22.893Z,39.20
2022-08-12T12:16:01.054Z,39.40
2022-08-12T12:18:34.854Z,39.50
2022-08-12T12:21:08.328Z,39.60
2022-08-12T12:23:36.696Z,39.70
2022-08-12T12:26:09.889Z,39.80
2022-08-12T12:28:55.094Z,39.90
2022-08-12T12:32:10.557Z,39.90
2022-08-12T12:34:12.174Z,40.00
2022-08-12T12:36:58.362Z,40.10
2022-08-12T12:39:28.593Z,40.20
2022-08-12T12:42:45.604Z,40.40
2022-08-12T12:44:51.074Z,40.50
2022-08-12T12:47:30.098Z,40.50
2022-08-12T12:49:57.858Z,40.70
2022-08-12T12:52:27.130Z,40.80
2022-08-12T12:54:55.769Z,40.80
2022-08-12T12:57:58.911Z,40.90
2022-08-12T13:00:15.855Z,41.00
2022-08-12T13:02:53.724Z,41.10
2022-08-12T13:05:28.290Z,41.20
2022-08-12T13:08:01.784Z,41.30
2022-08-12T13:10:37.063Z,41.40
2022-08-12T13:14:07.500Z,41.50
2022-08-12T13:15:58.969Z,41.60
2022-08-12T13:18:33.508Z,41.70
2022-08-12T13:21:02.452Z,41.80
2022-08-12T13:23:37.338Z,41.80
2022-08-12T13:26:05.464Z,41.90
2022-08-12T13:28:33.176Z,41.90
2022-08-12T13:31:00.757Z,42.00
2022-08-12T13:33:29.399Z,42.00
2022-08-12T13:36:18.938Z,42.10
2022-08-12T13:38:54.283Z,42.20
2022-08-12T13:41:34.310Z,42.30
2022-08-12T13:44:10.474Z,42.30
2022-08-12T13:46:41.027Z,42.40
2022-08-12T13:49:20.481Z,42.40
2022-08-12T13:52:01.700Z,42.40
2022-08-12T13:54:29.719Z,42.50
2022-08-12T13:56:57.300Z,42.60
2022-08-12T13:59:26.729Z,42.70
2022-08-12T14:01:56.638Z,42.70
2022-08-12T14:04:24.879Z,42.80
2022-08-12T14:06:53.930Z,42.80
2022-08-12T14:09:21.422Z,42.80
2022-08-12T14:11:54.809Z,42.80
2022-08-12T14:14:31.448Z,42.80
2022-08-12T14:17:05.169Z,42.80
2022-08-12T14:19:36.060Z,42.90
2022-08-12T14:22:05.773Z,42.90
2022-08-12T14:24:40.629Z,43.00
2022-08-12T14:27:11.086Z,43.00
2022-08-12T14:30:05.419Z,43.00
2022-08-12T14:32:37.092Z,43.00
2022-08-12T14:35:09.511Z,43.10
2022-08-12T14:37:57.662Z,43.20
2022-08-12T14:40:29.050Z,43.20
2022-08-12T14:42:58.743Z,43.20
2022-08-12T14:45:45.583Z,43.20
2022-08-12T14:48:18.732Z,43.20
2022-08-12T14:52:10.257Z,43.10
2022-08-12T14:55:18.204Z,43.10
2022-08-12T14:59:56.416Z,43.00
2022-08-12T15:02:21.357Z,43.00
2022-08-12T15:04:52.374Z,43.00
2022-08-12T15:07:32.724Z,43.00
2022-08-12T15:10:02.379Z,43.00
2022-08-12T15:12:33.591Z,43.00
2022-08-12T15:15:01.104Z,43.00
2022-08-12T15:17:38.382Z,42.90
2022-08-12T15:20:31.567Z,42.90
2022-08-12T15:22:57.848Z,42.80
2022-08-12T15:25:30.173Z,42.90
2022-08-12T15:28:20.467Z,42.80
2022-08-12T15:30:52.221Z,42.80
2022-08-12T15:33:24.153Z,42.90
2022-08-12T15:35:54.038Z,42.90
2022-08-12T15:38:31.359Z,42.90
2022-08-12T15:41:01.026Z,42.80
2022-08-12T15:44:07.767Z,42.70
2022-08-12T15:46:25.543Z,42.70
2022-08-12T15:48:55.491Z,42.60
2022-08-12T15:51:59.627Z,42.60
2022-08-12T15:54:35.041Z,42.40
2022-08-12T15:57:07.668Z,42.30
2022-08-12T16:00:00.710Z,42.30
2022-08-12T16:02:29.868Z,42.10
2022-08-12T16:04:58.214Z,42.00
2022-08-12T16:07:32.601Z,41.90
2022-08-12T16:10:08.382Z,41.70
2022-08-12T16:12:54.693Z,41.60
2022-08-12T16:15:29.522Z,41.50
2022-08-12T16:18:25.962Z,41.30
2022-08-12T16:20:52.185Z,41.20
2022-08-12T16:23:36.060Z,41.10
2022-08-12T16:26:15.282Z,41.00
2022-08-12T16:28:47.329Z,40.80
2022-08-12T16:31:23.333Z,40.70
2022-08-12T16:33:58.840Z,40.50
2022-08-12T16:36:29.887Z,40.30
2022-08-12T16:39:01.105Z,40.10
2022-08-12T16:41:39.817Z,39.90
2022-08-12T16:44:10.916Z,39.80
2022-08-12T16:46:38.496Z,39.60
2022-08-12T16:49:09.226Z,39.50
2022-08-12T16:51:46.434Z,39.30
2022-08-12T16:54:17.141Z,39.20
2022-08-12T16:56:54.448Z,39.10
2022-08-12T16:59:23.859Z,39.00
2022-08-12T17:01:51.983Z,38.80
2022-08-12T17:04:24.266Z,38.70
2022-08-12T17:06:52.597Z,38.50
2022-08-12T17:09:20.310Z,38.30
2022-08-12T17:11:49.614Z,38.20
2022-08-12T17:14:22.977Z,38.10
2022-08-12T17:16:55.376Z,37.90
2022-08-12T17:20:30.505Z,37.70
2022-08-12T17:22:14.997Z,37.50
2022-08-12T17:24:54.601Z,37.30
2022-08-12T17:27:25.637Z,37.20
2022-08-12T17:30:02.679Z,37.00
2022-08-12T17:32:35.055Z,36.80
2022-08-12T17:35:21.398Z,36.60
2022-08-12T17:37:50.804Z,36.40
2022-08-12T17:40:36.140Z,36.20
2022-08-12T17:43:54.683Z,36.00
2022-08-12T17:45:58.957Z,35.70
2022-08-12T17:48:34.707Z,35.50
2022-08-12T17:51:15.473Z,35.20
2022-08-12T17:54:06.049Z,35.00
2022-08-12T17:56:37.397Z,34.70
2022-08-12T17:59:07.379Z,34.40
2022-08-12T18:01:36.582Z,34.20
2022-08-12T18:04:21.328Z,34.00
2022-08-12T18:06:52.148Z,33.70
2022-08-12T18:09:21.942Z,33.50
2022-08-12T18:12:12.144Z,33.30
2022-08-12T18:14:41.337Z,33.10
2022-08-12T18:17:17.947Z,32.90
2022-08-12T18:20:05.481Z,32.70
2022-08-12T18:22:34.122Z,32.60
2022-08-12T18:25:06.534Z,32.40
2022-08-12T18:27:43.823Z,32.20
2022-08-12T18:30:21.043Z,32.10
2022-08-12T18:33:05.207Z,31.90
2022-08-12T18:35:53.050Z,31.80
2022-08-12T18:38:24.776Z,31.60
2022-08-12T18:41:21.089Z,31.50
2022-08-12T18:44:09.671Z,31.30
2022-08-12T18:46:47.528Z,31.10
2022-08-12T18:49:30.778Z,31.00
2022-08-12T18:52:04.864Z,30.80
2022-08-12T18:54:49.159Z,30.70
2022-08-12T18:58:06.067Z,30.60
2022-08-12T19:00:22.154Z,30.50
2022-08-12T19:02:53.447Z,30.40
2022-08-12T19:05:45.798Z,30.30
2022-08-12T19:08:13.316Z,30.10
2022-08-12T19:10:50.275Z,30.00
2022-08-12T19:13:39.860Z,29.90
2022-08-12T19:16:10.849Z,29.80
2022-08-12T19:18:40.926Z,29.70
2022-08-12T19:21:16.344Z,29.60
2022-08-12T19:24:08.578Z,29.50
2022-08-12T19:26:37.620Z,29.50
2022-08-12T19:29:07.621Z,29.30
2022-08-12T19:31:57.153Z,29.20
2022-08-12T19:35:53.818Z,29.10
2022-08-12T19:38:03.230Z,29.00
2022-08-12T19:40:31.007Z,28.90
2022-08-12T19:43:20.395Z,28.80
2022-08-12T19:45:57.806Z,28.70
2022-08-12T19:48:30.720Z,28.60
2022-08-12T19:51:09.378Z,28.50
2022-08-12T19:53:57.445Z,28.40
2022-08-12T19:56:29.997Z,28.40
2022-08-12T19:59:18.774Z,28.20
2022-08-12T20:02:02.355Z,28.20
2022-08-12T20:04:33.014Z,28.10
2022-08-12T20:07:01.061Z,28.00
2022-08-12T20:09:28.710Z,27.90
2022-08-12T20:12:15.042Z,27.90
2022-08-12T20:14:48.413Z,27.80
2022-08-12T20:17:16.602Z,27.70
2022-08-12T20:20:16.994Z,27.60
2022-08-12T20:22:43.001Z,27.60
2022-08-12T20:25:13.216Z,27.50
2022-08-12T20:28:03.174Z,27.40
2022-08-12T20:30:52.343Z,27.40
2022-08-12T20:33:32.421Z,27.30
2022-08-12T20:36:42.936Z,27.20
2022-08-12T20:39:17.559Z,27.10
2022-08-12T20:41:58.872Z,27.00
2022-08-12T20:44:27.487Z,26.90
2022-08-12T20:47:11.836Z,26.90
2022-08-12T20:49:55.492Z,26.80
2022-08-12T20:52:41.634Z,26.80
2022-08-12T20:55:15.848Z,26.70
2022-08-12T20:58:01.849Z,26.60
2022-08-12T21:00:30.971Z,26.60
2022-08-12T21:03:18.541Z,26.50
2022-08-12T21:06:11.740Z,26.50
2022-08-12T21:08:43.364Z,26.40
2022-08-12T21:11:11.158Z,26.30
2022-08-12T21:13:41.775Z,26.30
2022-08-12T21:16:10.499Z,26.30
2022-08-12T21:18:39.091Z,26.20
2022-08-12T21:21:06.904Z,26.10
2022-08-12T21:23:52.390Z,26.10
2022-08-12T21:26:24.432Z,26.00
2022-08-12T21:29:01.387Z,26.00
2022-08-12T21:32:38.077Z,25.90
2022-08-12T21:34:29.129Z,25.90
2022-08-12T21:37:13.059Z,25.80
2022-08-12T21:39:52.270Z,25.80
2022-08-12T21:42:20.948Z,25.70
2022-08-12T21:45:46.456Z,25.70
2022-08-12T21:47:43.962Z,25.60
2022-08-12T21:50:13.935Z,25.60
2022-08-12T21:52:42.485Z,25.60
2022-08-12T21:55:19.761Z,25.60
2022-08-12T21:57:54.617Z,25.50
2022-08-12T22:00:35.060Z,25.50
2022-08-12T22:04:03.023Z,25.40
2022-08-12T22:06:26.269Z,25.40
2022-08-12T22:09:02.420Z,25.40
2022-08-12T22:11:41.513Z,25.30
2022-08-12T22:14:21.584Z,25.20
2022-08-12T22:16:54.337Z,25.20
2022-08-12T22:19:22.874Z,25.20
2022-08-12T22:21:54.588Z,25.20
2022-08-12T22:24:26.882Z,25.10
2022-08-12T22:27:31.493Z,25.10
2022-08-12T22:30:16.696Z,25.10
2022-08-12T22:32:49.972Z,25.00
2022-08-12T22:35:55.376Z,25.00
2022-08-12T22:38:26.302Z,25.00
2022-08-12T22:41:03.593Z,24.90
2022-08-12T22:43:59.795Z,24.90
2022-08-12T22:46:52.590Z,24.90
2022-08-12T22:49:37.094Z,24.80
2022-08-12T22:52:18.685Z,24.80
2022-08-12T22:55:02.853Z,24.70
2022-08-12T22:57:53.817Z,24.70
2022-08-12T23:00:24.667Z,24.70
2022-08-12T23:03:02.714Z,24.60
2022-08-12T23:05:36.722Z,24.60
2022-08-12T23:08:23.241Z,24.60
2022-08-12T23:10:51.590Z,24.50
2022-08-12T23:13:43.223Z,24.50
2022-08-12T23:16:28.501Z,24.50
2022-08-12T23:19:01.584Z,24.50
2022-08-12T23:22:06.603Z,24.40
2022-08-12T23:24:35.565Z,24.40
2022-08-12T23:27:23.080Z,24.30
2022-08-12T23:30:17.809Z,24.30
2022-08-12T23:32:40.875Z,24.30
2022-08-12T23:35:08.745Z,24.30
2022-08-12T23:37:47.609Z,24.20
2022-08-12T23:40:24.400Z,24.20
2022-08-12T23:42:54.916Z,24.10
2022-08-12T23:45:31.493Z,24.10
2022-08-12T23:48:01.383Z,24.00
2022-08-12T23:50:34.471Z,24.00
2022-08-12T23:53:22.670Z,24.00
2022-08-12T23:55:50.743Z,24.00
2022-08-12T23:58:25.716Z,24.00
